sensor_id;sensor_type;location;lat;lon;timestamp;P1;durP1;ratioP1;P2;durP2;ratioP2
49978;SDS011;35869;50.990;6.962;2024-01-07T00:01:08;27.20;;;17.77;;
49978;SDS011;35869;50.990;6.962;2024-01-07T00:06:09;26.00;;;16.65;;
49978;SDS011;35869;50.990;6.962;2024-01-07T00:11:10;25.13;;;16.02;;
49978;SDS011;35869;50.990;6.962;2024-01-07T00:16:10;20.55;;;14.70;;
49978;SDS011;35869;50.990;6.962;2024-01-07T00:21:12;23.13;;;14.98;;
49978;SDS011;35869;50.990;6.962;2024-01-07T00:26:15;21.48;;;15.43;;
49978;SDS011;35869;50.990;6.962;2024-01-07T00:31:15;21.20;;;15.60;;
49978;SDS011;35869;50.990;6.962;2024-01-07T00:36:16;22.00;;;13.85;;
49978;SDS011;35869;50.990;6.962;2024-01-07T00:41:16;21.10;;;14.27;;
49978;SDS011;35869;50.990;6.962;2024-01-07T00:46:16;23.10;;;14.35;;
49978;SDS011;35869;50.990;6.962;2024-01-07T00:51:19;18.02;;;13.32;;
49978;SDS011;35869;50.990;6.962;2024-01-07T00:56:21;20.30;;;13.65;;
49978;SDS011;35869;50.990;6.962;2024-01-07T01:01:25;19.33;;;13.85;;
49978;SDS011;35869;50.990;6.962;2024-01-07T01:06:26;17.38;;;12.15;;
49978;SDS011;35869;50.990;6.962;2024-01-07T01:11:26;17.25;;;10.90;;
49978;SDS011;35869;50.990;6.962;2024-01-07T01:16:26;18.27;;;13.40;;
49978;SDS011;35869;50.990;6.962;2024-01-07T01:21:26;15.93;;;11.50;;
49978;SDS011;35869;50.990;6.962;2024-01-07T01:26:26;18.20;;;12.88;;
49978;SDS011;35869;50.990;6.962;2024-01-07T01:31:27;20.70;;;13.85;;
49978;SDS011;35869;50.990;6.962;2024-01-07T01:36:27;17.27;;;13.05;;
49978;SDS011;35869;50.990;6.962;2024-01-07T01:41:28;20.77;;;13.15;;
49978;SDS011;35869;50.990;6.962;2024-01-07T01:46:29;16.95;;;13.07;;
49978;SDS011;35869;50.990;6.962;2024-01-07T01:56:30;14.10;;;10.55;;
49978;SDS011;35869;50.990;6.962;2024-01-07T02:06:31;16.25;;;11.63;;
49978;SDS011;35869;50.990;6.962;2024-01-07T02:11:32;18.23;;;12.18;;
49978;SDS011;35869;50.990;6.962;2024-01-07T02:16:32;16.00;;;11.95;;
49978;SDS011;35869;50.990;6.962;2024-01-07T02:21:32;16.27;;;12.43;;
49978;SDS011;35869;50.990;6.962;2024-01-07T02:26:33;15.55;;;12.30;;
49978;SDS011;35869;50.990;6.962;2024-01-07T02:31:33;15.50;;;11.85;;
49978;SDS011;35869;50.990;6.962;2024-01-07T02:36:33;19.27;;;12.98;;
49978;SDS011;35869;50.990;6.962;2024-01-07T02:41:33;18.98;;;12.77;;
49978;SDS011;35869;50.990;6.962;2024-01-07T02:46:33;19.52;;;15.00;;
49978;SDS011;35869;50.990;6.962;2024-01-07T02:51:34;18.52;;;13.45;;
49978;SDS011;35869;50.990;6.962;2024-01-07T02:56:34;19.50;;;14.57;;
49978;SDS011;35869;50.990;6.962;2024-01-07T03:01:34;18.63;;;13.60;;
49978;SDS011;35869;50.990;6.962;2024-01-07T03:06:34;19.08;;;14.25;;
49978;SDS011;35869;50.990;6.962;2024-01-07T03:11:38;24.33;;;16.65;;
49978;SDS011;35869;50.990;6.962;2024-01-07T03:16:39;19.38;;;13.63;;
49978;SDS011;35869;50.990;6.962;2024-01-07T03:21:39;23.90;;;17.35;;
49978;SDS011;35869;50.990;6.962;2024-01-07T03:26:39;24.58;;;17.30;;
49978;SDS011;35869;50.990;6.962;2024-01-07T03:31:39;29.38;;;18.85;;
49978;SDS011;35869;50.990;6.962;2024-01-07T03:36:40;30.75;;;18.85;;
49978;SDS011;35869;50.990;6.962;2024-01-07T03:41:40;27.15;;;17.13;;
49978;SDS011;35869;50.990;6.962;2024-01-07T03:46:40;26.17;;;19.45;;
49978;SDS011;35869;50.990;6.962;2024-01-07T03:51:40;26.70;;;18.90;;
49978;SDS011;35869;50.990;6.962;2024-01-07T03:56:40;28.67;;;19.40;;
49978;SDS011;35869;50.990;6.962;2024-01-07T04:01:41;27.33;;;18.90;;
49978;SDS011;35869;50.990;6.962;2024-01-07T04:06:41;30.13;;;20.45;;
49978;SDS011;35869;50.990;6.962;2024-01-07T04:11:42;34.40;;;21.20;;
49978;SDS011;35869;50.990;6.962;2024-01-07T04:16:43;30.80;;;18.65;;
49978;SDS011;35869;50.990;6.962;2024-01-07T04:21:46;23.92;;;17.15;;
49978;SDS011;35869;50.990;6.962;2024-01-07T04:26:46;27.65;;;18.98;;
49978;SDS011;35869;50.990;6.962;2024-01-07T04:31:46;23.92;;;18.20;;
49978;SDS011;35869;50.990;6.962;2024-01-07T04:36:47;24.40;;;17.05;;
49978;SDS011;35869;50.990;6.962;2024-01-07T04:41:47;24.75;;;18.23;;
49978;SDS011;35869;50.990;6.962;2024-01-07T04:46:47;26.90;;;17.07;;
49978;SDS011;35869;50.990;6.962;2024-01-07T04:51:48;23.52;;;18.15;;
49978;SDS011;35869;50.990;6.962;2024-01-07T04:56:48;26.50;;;19.92;;
49978;SDS011;35869;50.990;6.962;2024-01-07T05:01:48;25.03;;;18.30;;
49978;SDS011;35869;50.990;6.962;2024-01-07T05:06:49;27.40;;;20.15;;
49978;SDS011;35869;50.990;6.962;2024-01-07T05:11:49;23.75;;;17.85;;
49978;SDS011;35869;50.990;6.962;2024-01-07T05:16:49;23.75;;;17.45;;
49978;SDS011;35869;50.990;6.962;2024-01-07T05:21:49;25.60;;;19.27;;
49978;SDS011;35869;50.990;6.962;2024-01-07T05:26:50;26.80;;;18.27;;
49978;SDS011;35869;50.990;6.962;2024-01-07T05:31:50;23.63;;;17.17;;
49978;SDS011;35869;50.990;6.962;2024-01-07T05:36:50;26.65;;;18.10;;
49978;SDS011;35869;50.990;6.962;2024-01-07T05:41:51;22.20;;;16.85;;
49978;SDS011;35869;50.990;6.962;2024-01-07T05:46:51;21.07;;;15.80;;
49978;SDS011;35869;50.990;6.962;2024-01-07T05:51:51;22.25;;;17.45;;
49978;SDS011;35869;50.990;6.962;2024-01-07T05:56:52;24.57;;;17.90;;
49978;SDS011;35869;50.990;6.962;2024-01-07T06:01:57;22.33;;;16.20;;
49978;SDS011;35869;50.990;6.962;2024-01-07T06:06:58;21.50;;;16.52;;
49978;SDS011;35869;50.990;6.962;2024-01-07T06:11:58;21.95;;;16.63;;
49978;SDS011;35869;50.990;6.962;2024-01-07T06:16:58;23.25;;;17.92;;
49978;SDS011;35869;50.990;6.962;2024-01-07T06:21:58;23.05;;;17.10;;
49978;SDS011;35869;50.990;6.962;2024-01-07T06:26:59;22.35;;;15.73;;
49978;SDS011;35869;50.990;6.962;2024-01-07T06:31:59;21.63;;;16.10;;
49978;SDS011;35869;50.990;6.962;2024-01-07T06:36:59;28.08;;;19.75;;
49978;SDS011;35869;50.990;6.962;2024-01-07T06:42:00;27.65;;;19.70;;
49978;SDS011;35869;50.990;6.962;2024-01-07T06:47:00;23.98;;;18.52;;
49978;SDS011;35869;50.990;6.962;2024-01-07T06:52:00;24.92;;;19.65;;
49978;SDS011;35869;50.990;6.962;2024-01-07T06:57:00;26.77;;;19.27;;
49978;SDS011;35869;50.990;6.962;2024-01-07T07:02:01;23.92;;;17.90;;
49978;SDS011;35869;50.990;6.962;2024-01-07T07:07:01;21.25;;;16.45;;
49978;SDS011;35869;50.990;6.962;2024-01-07T07:12:02;16.95;;;13.73;;
49978;SDS011;35869;50.990;6.962;2024-01-07T07:17:02;19.10;;;14.07;;
49978;SDS011;35869;50.990;6.962;2024-01-07T07:22:03;22.30;;;17.43;;
49978;SDS011;35869;50.990;6.962;2024-01-07T07:27:03;19.73;;;15.77;;
49978;SDS011;35869;50.990;6.962;2024-01-07T07:32:04;20.07;;;15.73;;
49978;SDS011;35869;50.990;6.962;2024-01-07T07:37:05;18.10;;;14.75;;
49978;SDS011;35869;50.990;6.962;2024-01-07T07:42:05;20.95;;;15.40;;
49978;SDS011;35869;50.990;6.962;2024-01-07T07:47:05;20.70;;;14.97;;
49978;SDS011;35869;50.990;6.962;2024-01-07T07:52:08;23.67;;;17.60;;
49978;SDS011;35869;50.990;6.962;2024-01-07T07:57:08;19.45;;;16.42;;
49978;SDS011;35869;50.990;6.962;2024-01-07T08:02:09;23.63;;;16.77;;
49978;SDS011;35869;50.990;6.962;2024-01-07T08:07:09;27.10;;;17.43;;
49978;SDS011;35869;50.990;6.962;2024-01-07T08:12:10;25.10;;;18.20;;
49978;SDS011;35869;50.990;6.962;2024-01-07T08:17:31;27.17;;;18.33;;
49978;SDS011;35869;50.990;6.962;2024-01-07T08:22:31;26.02;;;18.90;;
49978;SDS011;35869;50.990;6.962;2024-01-07T08:27:31;22.40;;;16.85;;
49978;SDS011;35869;50.990;6.962;2024-01-07T08:32:31;22.65;;;16.98;;
49978;SDS011;35869;50.990;6.962;2024-01-07T08:37:32;20.27;;;15.45;;
49978;SDS011;35869;50.990;6.962;2024-01-07T08:42:32;24.10;;;17.43;;
49978;SDS011;35869;50.990;6.962;2024-01-07T08:47:32;22.40;;;18.37;;
49978;SDS011;35869;50.990;6.962;2024-01-07T08:52:33;26.35;;;19.05;;
49978;SDS011;35869;50.990;6.962;2024-01-07T08:57:33;26.90;;;20.30;;
49978;SDS011;35869;50.990;6.962;2024-01-07T09:02:33;25.30;;;18.60;;
49978;SDS011;35869;50.990;6.962;2024-01-07T09:07:33;24.98;;;17.90;;
49978;SDS011;35869;50.990;6.962;2024-01-07T09:12:33;22.02;;;17.00;;
49978;SDS011;35869;50.990;6.962;2024-01-07T09:17:34;23.02;;;17.08;;
49978;SDS011;35869;50.990;6.962;2024-01-07T09:22:35;27.83;;;19.88;;
49978;SDS011;35869;50.990;6.962;2024-01-07T09:27:36;24.33;;;20.30;;
49978;SDS011;35869;50.990;6.962;2024-01-07T09:32:36;20.97;;;17.70;;
49978;SDS011;35869;50.990;6.962;2024-01-07T09:37:36;18.00;;;13.07;;
49978;SDS011;35869;50.990;6.962;2024-01-07T09:42:37;17.67;;;13.63;;
49978;SDS011;35869;50.990;6.962;2024-01-07T09:47:37;15.93;;;13.13;;
49978;SDS011;35869;50.990;6.962;2024-01-07T09:52:38;17.43;;;14.70;;
49978;SDS011;35869;50.990;6.962;2024-01-07T09:57:42;14.15;;;12.60;;
49978;SDS011;35869;50.990;6.962;2024-01-07T10:02:44;13.48;;;11.43;;
49978;SDS011;35869;50.990;6.962;2024-01-07T10:07:44;11.68;;;10.52;;
49978;SDS011;35869;50.990;6.962;2024-01-07T10:12:44;12.43;;;9.82;;
49978;SDS011;35869;50.990;6.962;2024-01-07T10:17:45;11.57;;;10.37;;
49978;SDS011;35869;50.990;6.962;2024-01-07T10:22:51;11.95;;;9.65;;
49978;SDS011;35869;50.990;6.962;2024-01-07T10:27:51;13.38;;;11.23;;
49978;SDS011;35869;50.990;6.962;2024-01-07T10:32:58;15.77;;;13.15;;
49978;SDS011;35869;50.990;6.962;2024-01-07T10:37:59;12.60;;;11.30;;
49978;SDS011;35869;50.990;6.962;2024-01-07T10:43:00;14.93;;;12.75;;
49978;SDS011;35869;50.990;6.962;2024-01-07T10:48:03;14.45;;;11.90;;
49978;SDS011;35869;50.990;6.962;2024-01-07T10:53:07;13.55;;;10.23;;
49978;SDS011;35869;50.990;6.962;2024-01-07T10:58:11;19.00;;;13.60;;
49978;SDS011;35869;50.990;6.962;2024-01-07T11:03:18;15.80;;;13.02;;
49978;SDS011;35869;50.990;6.962;2024-01-07T11:18:46;21.08;;;14.63;;
49978;SDS011;35869;50.990;6.962;2024-01-07T11:23:49;17.67;;;13.95;;
49978;SDS011;35869;50.990;6.962;2024-01-07T11:33:51;18.30;;;13.55;;
49978;SDS011;35869;50.990;6.962;2024-01-07T11:38:51;18.15;;;15.15;;
49978;SDS011;35869;50.990;6.962;2024-01-07T11:48:54;16.50;;;14.27;;
49978;SDS011;35869;50.990;6.962;2024-01-07T11:53:55;16.20;;;14.50;;
49978;SDS011;35869;50.990;6.962;2024-01-07T11:58:55;15.05;;;12.43;;
49978;SDS011;35869;50.990;6.962;2024-01-07T12:03:55;14.60;;;11.35;;
49978;SDS011;35869;50.990;6.962;2024-01-07T12:08:56;14.45;;;12.23;;
49978;SDS011;35869;50.990;6.962;2024-01-07T12:13:56;15.93;;;11.88;;
49978;SDS011;35869;50.990;6.962;2024-01-07T12:18:57;15.45;;;11.98;;
49978;SDS011;35869;50.990;6.962;2024-01-07T12:23:58;11.88;;;10.65;;
49978;SDS011;35869;50.990;6.962;2024-01-07T12:28:59;12.73;;;10.52;;
49978;SDS011;35869;50.990;6.962;2024-01-07T12:34:01;13.43;;;10.45;;
49978;SDS011;35869;50.990;6.962;2024-01-07T12:39:02;15.15;;;11.55;;
49978;SDS011;35869;50.990;6.962;2024-01-07T12:44:02;13.43;;;10.50;;
49978;SDS011;35869;50.990;6.962;2024-01-07T12:49:03;12.52;;;9.18;;
49978;SDS011;35869;50.990;6.962;2024-01-07T12:54:03;12.68;;;7.72;;
49978;SDS011;35869;50.990;6.962;2024-01-07T12:59:03;12.50;;;9.85;;
49978;SDS011;35869;50.990;6.962;2024-01-07T13:04:04;10.98;;;9.75;;
49978;SDS011;35869;50.990;6.962;2024-01-07T13:09:04;9.55;;;8.55;;
49978;SDS011;35869;50.990;6.962;2024-01-07T13:14:04;9.10;;;7.97;;
49978;SDS011;35869;50.990;6.962;2024-01-07T13:19:05;10.10;;;8.57;;
49978;SDS011;35869;50.990;6.962;2024-01-07T13:24:05;9.45;;;7.35;;
49978;SDS011;35869;50.990;6.962;2024-01-07T13:29:05;7.20;;;6.40;;
49978;SDS011;35869;50.990;6.962;2024-01-07T13:34:05;6.30;;;5.70;;
49978;SDS011;35869;50.990;6.962;2024-01-07T13:39:06;9.25;;;7.35;;
49978;SDS011;35869;50.990;6.962;2024-01-07T13:44:06;8.30;;;6.83;;
49978;SDS011;35869;50.990;6.962;2024-01-07T13:49:06;10.10;;;8.13;;
49978;SDS011;35869;50.990;6.962;2024-01-07T13:54:06;6.68;;;5.85;;
49978;SDS011;35869;50.990;6.962;2024-01-07T13:59:07;8.07;;;6.60;;
49978;SDS011;35869;50.990;6.962;2024-01-07T14:04:07;6.23;;;5.63;;
49978;SDS011;35869;50.990;6.962;2024-01-07T14:09:07;9.98;;;6.78;;
49978;SDS011;35869;50.990;6.962;2024-01-07T14:14:08;8.85;;;6.90;;
49978;SDS011;35869;50.990;6.962;2024-01-07T14:19:08;7.13;;;6.40;;
49978;SDS011;35869;50.990;6.962;2024-01-07T14:24:08;6.15;;;5.30;;
49978;SDS011;35869;50.990;6.962;2024-01-07T14:29:08;5.18;;;4.63;;
49978;SDS011;35869;50.990;6.962;2024-01-07T14:34:08;3.92;;;3.55;;
49978;SDS011;35869;50.990;6.962;2024-01-07T14:39:09;5.07;;;3.72;;
49978;SDS011;35869;50.990;6.962;2024-01-07T14:44:09;5.50;;;3.70;;
49978;SDS011;35869;50.990;6.962;2024-01-07T14:49:09;4.15;;;3.75;;
49978;SDS011;35869;50.990;6.962;2024-01-07T14:54:09;4.45;;;3.53;;
49978;SDS011;35869;50.990;6.962;2024-01-07T14:59:10;3.47;;;3.00;;
49978;SDS011;35869;50.990;6.962;2024-01-07T15:04:10;2.83;;;2.50;;
49978;SDS011;35869;50.990;6.962;2024-01-07T15:09:10;3.47;;;2.37;;
49978;SDS011;35869;50.990;6.962;2024-01-07T15:14:10;5.38;;;2.92;;
49978;SDS011;35869;50.990;6.962;2024-01-07T15:19:11;2.78;;;2.50;;
49978;SDS011;35869;50.990;6.962;2024-01-07T15:24:11;4.23;;;3.20;;
49978;SDS011;35869;50.990;6.962;2024-01-07T15:29:11;4.72;;;3.10;;
49978;SDS011;35869;50.990;6.962;2024-01-07T15:34:12;3.53;;;2.78;;
49978;SDS011;35869;50.990;6.962;2024-01-07T15:39:12;3.30;;;2.90;;
49978;SDS011;35869;50.990;6.962;2024-01-07T15:44:12;2.80;;;2.58;;
49978;SDS011;35869;50.990;6.962;2024-01-07T15:49:12;3.63;;;2.35;;
49978;SDS011;35869;50.990;6.962;2024-01-07T15:54:12;4.22;;;2.70;;
49978;SDS011;35869;50.990;6.962;2024-01-07T15:59:13;3.65;;;2.30;;
49978;SDS011;35869;50.990;6.962;2024-01-07T16:04:13;2.90;;;2.25;;
49978;SDS011;35869;50.990;6.962;2024-01-07T16:09:13;3.13;;;2.28;;
49978;SDS011;35869;50.990;6.962;2024-01-07T16:14:13;5.05;;;3.00;;
49978;SDS011;35869;50.990;6.962;2024-01-07T16:19:14;3.53;;;2.45;;
49978;SDS011;35869;50.990;6.962;2024-01-07T16:24:14;3.33;;;3.03;;
49978;SDS011;35869;50.990;6.962;2024-01-07T16:29:14;4.65;;;3.05;;
49978;SDS011;35869;50.990;6.962;2024-01-07T16:34:14;3.97;;;3.25;;
49978;SDS011;35869;50.990;6.962;2024-01-07T16:39:14;2.50;;;2.30;;
49978;SDS011;35869;50.990;6.962;2024-01-07T16:44:15;3.78;;;2.72;;
49978;SDS011;35869;50.990;6.962;2024-01-07T16:49:15;2.80;;;2.20;;
49978;SDS011;35869;50.990;6.962;2024-01-07T16:54:15;2.78;;;2.58;;
49978;SDS011;35869;50.990;6.962;2024-01-07T16:59:15;3.67;;;2.28;;
49978;SDS011;35869;50.990;6.962;2024-01-07T17:04:16;3.10;;;2.30;;
49978;SDS011;35869;50.990;6.962;2024-01-07T17:09:16;4.15;;;2.92;;
49978;SDS011;35869;50.990;6.962;2024-01-07T17:14:16;3.00;;;2.55;;
49978;SDS011;35869;50.990;6.962;2024-01-07T17:19:17;3.85;;;2.28;;
49978;SDS011;35869;50.990;6.962;2024-01-07T17:24:17;2.87;;;2.43;;
49978;SDS011;35869;50.990;6.962;2024-01-07T17:29:17;2.92;;;2.63;;
49978;SDS011;35869;50.990;6.962;2024-01-07T17:34:17;7.03;;;2.92;;
49978;SDS011;35869;50.990;6.962;2024-01-07T17:39:18;4.30;;;3.22;;
49978;SDS011;35869;50.990;6.962;2024-01-07T17:44:18;4.93;;;2.97;;
49978;SDS011;35869;50.990;6.962;2024-01-07T17:49:18;5.20;;;3.13;;
49978;SDS011;35869;50.990;6.962;2024-01-07T17:54:18;2.90;;;2.60;;
49978;SDS011;35869;50.990;6.962;2024-01-07T17:59:18;3.85;;;2.60;;
49978;SDS011;35869;50.990;6.962;2024-01-07T18:04:20;2.92;;;2.55;;
49978;SDS011;35869;50.990;6.962;2024-01-07T18:14:20;1.77;;;1.67;;
49978;SDS011;35869;50.990;6.962;2024-01-07T18:19:20;2.10;;;1.83;;
49978;SDS011;35869;50.990;6.962;2024-01-07T18:24:22;1.98;;;1.83;;
49978;SDS011;35869;50.990;6.962;2024-01-07T18:29:23;2.22;;;1.50;;
49978;SDS011;35869;50.990;6.962;2024-01-07T18:39:23;1.40;;;1.30;;
49978;SDS011;35869;50.990;6.962;2024-01-07T18:44:24;1.92;;;1.67;;
49978;SDS011;35869;50.990;6.962;2024-01-07T18:49:24;1.95;;;1.48;;
49978;SDS011;35869;50.990;6.962;2024-01-07T18:54:25;3.20;;;1.55;;
49978;SDS011;35869;50.990;6.962;2024-01-07T18:59:25;2.15;;;1.90;;
49978;SDS011;35869;50.990;6.962;2024-01-07T19:04:25;1.75;;;1.45;;
49978;SDS011;35869;50.990;6.962;2024-01-07T19:09:25;2.03;;;1.85;;
49978;SDS011;35869;50.990;6.962;2024-01-07T19:14:25;3.43;;;2.00;;
49978;SDS011;35869;50.990;6.962;2024-01-07T19:19:26;2.03;;;1.77;;
49978;SDS011;35869;50.990;6.962;2024-01-07T19:24:26;2.38;;;1.80;;
49978;SDS011;35869;50.990;6.962;2024-01-07T19:29:26;2.50;;;1.77;;
49978;SDS011;35869;50.990;6.962;2024-01-07T19:34:26;5.32;;;2.38;;
49978;SDS011;35869;50.990;6.962;2024-01-07T19:39:27;2.40;;;2.03;;
49978;SDS011;35869;50.990;6.962;2024-01-07T19:44:28;3.13;;;2.78;;
49978;SDS011;35869;50.990;6.962;2024-01-07T19:49:28;3.58;;;2.90;;
49978;SDS011;35869;50.990;6.962;2024-01-07T19:54:28;4.00;;;2.78;;
49978;SDS011;35869;50.990;6.962;2024-01-07T19:59:28;4.05;;;2.05;;
49978;SDS011;35869;50.990;6.962;2024-01-07T20:04:29;2.80;;;2.47;;
49978;SDS011;35869;50.990;6.962;2024-01-07T20:09:29;5.40;;;2.83;;
49978;SDS011;35869;50.990;6.962;2024-01-07T20:14:29;3.20;;;2.73;;
49978;SDS011;35869;50.990;6.962;2024-01-07T20:19:29;4.43;;;2.47;;
49978;SDS011;35869;50.990;6.962;2024-01-07T20:24:29;3.53;;;3.22;;
49978;SDS011;35869;50.990;6.962;2024-01-07T20:29:30;3.20;;;2.90;;
49978;SDS011;35869;50.990;6.962;2024-01-07T20:34:30;3.08;;;2.72;;
49978;SDS011;35869;50.990;6.962;2024-01-07T20:39:30;3.55;;;2.78;;
49978;SDS011;35869;50.990;6.962;2024-01-07T20:44:30;3.13;;;2.60;;
49978;SDS011;35869;50.990;6.962;2024-01-07T20:49:31;2.63;;;2.42;;
49978;SDS011;35869;50.990;6.962;2024-01-07T20:54:31;3.53;;;3.22;;
49978;SDS011;35869;50.990;6.962;2024-01-07T20:59:31;3.95;;;2.70;;
49978;SDS011;35869;50.990;6.962;2024-01-07T21:04:31;3.20;;;2.90;;
49978;SDS011;35869;50.990;6.962;2024-01-07T21:09:31;3.08;;;2.60;;
49978;SDS011;35869;50.990;6.962;2024-01-07T21:14:32;4.50;;;3.17;;
49978;SDS011;35869;50.990;6.962;2024-01-07T21:19:32;5.07;;;3.13;;
49978;SDS011;35869;50.990;6.962;2024-01-07T21:24:32;3.42;;;3.03;;
49978;SDS011;35869;50.990;6.962;2024-01-07T21:29:32;4.07;;;2.80;;
49978;SDS011;35869;50.990;6.962;2024-01-07T21:34:33;3.30;;;2.45;;
49978;SDS011;35869;50.990;6.962;2024-01-07T21:39:33;5.38;;;3.13;;
49978;SDS011;35869;50.990;6.962;2024-01-07T21:44:33;3.33;;;2.00;;
49978;SDS011;35869;50.990;6.962;2024-01-07T21:49:34;3.08;;;2.78;;
49978;SDS011;35869;50.990;6.962;2024-01-07T21:54:34;3.00;;;2.58;;
49978;SDS011;35869;50.990;6.962;2024-01-07T21:59:35;3.47;;;2.78;;
49978;SDS011;35869;50.990;6.962;2024-01-07T22:04:35;4.67;;;2.90;;
49978;SDS011;35869;50.990;6.962;2024-01-07T22:09:36;2.47;;;2.28;;
49978;SDS011;35869;50.990;6.962;2024-01-07T22:14:36;2.15;;;1.90;;
49978;SDS011;35869;50.990;6.962;2024-01-07T22:19:37;2.47;;;2.22;;
49978;SDS011;35869;50.990;6.962;2024-01-07T22:24:37;3.70;;;2.72;;
49978;SDS011;35869;50.990;6.962;2024-01-07T22:29:37;3.42;;;2.45;;
49978;SDS011;35869;50.990;6.962;2024-01-07T22:34:37;2.55;;;1.92;;
49978;SDS011;35869;50.990;6.962;2024-01-07T22:39:38;4.03;;;2.75;;
49978;SDS011;35869;50.990;6.962;2024-01-07T22:44:38;3.03;;;2.50;;
49978;SDS011;35869;50.990;6.962;2024-01-07T22:49:38;2.95;;;2.08;;
49978;SDS011;35869;50.990;6.962;2024-01-07T22:54:38;1.98;;;1.77;;
49978;SDS011;35869;50.990;6.962;2024-01-07T22:59:38;2.08;;;1.88;;
49978;SDS011;35869;50.990;6.962;2024-01-07T23:04:39;3.72;;;2.28;;
49978;SDS011;35869;50.990;6.962;2024-01-07T23:09:39;2.83;;;2.30;;
49978;SDS011;35869;50.990;6.962;2024-01-07T23:14:39;2.80;;;2.53;;
49978;SDS011;35869;50.990;6.962;2024-01-07T23:19:39;3.45;;;2.90;;
49978;SDS011;35869;50.990;6.962;2024-01-07T23:24:40;4.30;;;3.00;;
49978;SDS011;35869;50.990;6.962;2024-01-07T23:29:40;3.63;;;2.60;;
49978;SDS011;35869;50.990;6.962;2024-01-07T23:34:40;4.87;;;3.60;;
49978;SDS011;35869;50.990;6.962;2024-01-07T23:39:40;4.70;;;3.25;;
49978;SDS011;35869;50.990;6.962;2024-01-07T23:44:41;7.20;;;3.13;;
49978;SDS011;35869;50.990;6.962;2024-01-07T23:49:41;3.92;;;3.00;;
49978;SDS011;35869;50.990;6.962;2024-01-07T23:54:41;5.00;;;3.10;;
49978;SDS011;35869;50.990;6.962;2024-01-07T23:59:41;3.83;;;3.22;;
